createdAt,value
2018-12-01T00:00:31.339Z,100217.79
2018-12-01T00:03:00.096Z,100216.52
2018-12-01T00:05:28.701Z,100222.84
2018-12-01T00:07:57.519Z,100218.59
2018-12-01T00:10:26.139Z,100217.33
2018-12-01T00:12:54.631Z,100227.07
2018-12-01T00:15:27.459Z,100223.69
2018-12-01T00:17:56.648Z,100219.85
2018-12-01T00:20:27.193Z,100221.97
2018-12-01T00:22:56.462Z,100222.80
2018-12-01T00:25:25.585Z,100222.80
2018-12-01T00:27:54.045Z,100219.40
2018-12-01T00:30:24.070Z,100216.42
2018-12-01T00:32:53.075Z,100222.34
2018-12-01T00:35:21.558Z,100214.69
2018-12-01T00:37:50.164Z,100216.80
2018-12-01T00:40:19.512Z,100213.02
2018-12-01T00:42:48.094Z,100221.05
2018-12-01T00:45:17.708Z,100216.37
2018-12-01T00:47:47.949Z,100220.16
2018-12-01T00:50:22.256Z,100223.11
2018-12-01T00:52:51.487Z,100230.73
2018-12-01T00:55:20.602Z,100224.81
2018-12-01T00:57:49.038Z,100221.83
2018-12-01T01:00:20.998Z,100223.97
2018-12-01T01:02:52.714Z,100219.72
2018-12-01T01:05:22.340Z,100221.83
2018-12-01T01:07:50.874Z,100217.61
2018-12-01T01:10:20.102Z,100224.38
2018-12-01T01:12:48.771Z,100223.55
2018-12-01T01:15:17.239Z,100229.47
2018-12-01T01:17:45.782Z,100230.30
2018-12-01T01:20:17.140Z,100232.84
2018-12-01T01:22:46.526Z,100229.47
2018-12-01T01:25:16.130Z,100229.03
2018-12-01T01:27:45.164Z,100220.56
2018-12-01T01:30:21.091Z,100228.62
2018-12-01T01:32:50.411Z,100228.59
2018-12-01T01:35:18.991Z,100231.14
2018-12-01T01:37:47.622Z,100243.02
2018-12-01T01:40:17.902Z,100239.20
2018-12-01T01:42:46.464Z,100242.16
2018-12-01T01:45:17.759Z,100248.08
2018-12-01T01:47:46.421Z,100243.42
2018-12-01T01:50:17.196Z,100240.85
2018-12-01T01:52:45.741Z,100246.78
2018-12-01T01:55:14.870Z,100246.34
2018-12-01T01:57:43.391Z,100246.78
2018-12-01T02:00:17.974Z,100238.28
2018-12-01T02:02:49.541Z,100236.14
2018-12-01T02:05:19.168Z,100234.03
2018-12-01T02:07:47.782Z,100235.27
2018-12-01T02:10:17.181Z,100238.28
2018-12-01T02:12:46.222Z,100246.75
2018-12-01T02:15:14.936Z,100240.83
2018-12-01T02:17:43.484Z,100243.34
2018-12-01T02:20:16.011Z,100235.30
2018-12-01T02:22:44.707Z,100231.05
2018-12-01T02:25:14.969Z,100225.96
2018-12-01T02:27:44.436Z,100222.14
2018-12-01T02:30:16.592Z,100224.28
2018-12-01T02:32:45.084Z,100217.48
2018-12-01T02:35:15.602Z,100220.06
2018-12-01T02:37:44.132Z,100231.92
2018-12-01T02:40:13.512Z,100232.39
2018-12-01T02:42:43.136Z,100228.56
2018-12-01T02:45:22.937Z,100228.53
2018-12-01T02:47:51.832Z,100222.18
2018-12-01T02:50:26.241Z,100229.41
2018-12-01T02:52:56.649Z,100233.63
2018-12-01T02:55:25.134Z,100236.17
2018-12-01T02:57:53.586Z,100232.79
2018-12-01T03:00:23.006Z,100233.19
2018-12-01T03:02:51.490Z,100234.87
2018-12-01T03:05:19.920Z,100241.23
2018-12-01T03:07:48.477Z,100237.84
2018-12-01T03:10:19.532Z,100249.73
2018-12-01T03:12:48.565Z,100242.94
2018-12-01T03:15:19.074Z,100244.64
2018-12-01T03:17:48.265Z,100237.91
2018-12-01T03:20:18.309Z,100244.67
2018-12-01T03:22:46.791Z,100242.19
2018-12-01T03:25:18.476Z,100243.02
2018-12-01T03:27:48.128Z,100242.23
2018-12-01T03:30:20.192Z,100240.55
2018-12-01T03:32:49.579Z,100245.66
2018-12-01T03:35:18.555Z,100236.38
2018-12-01T03:37:48.016Z,100244.41
2018-12-01T03:40:17.127Z,100245.27
2018-12-01T03:42:46.066Z,100245.70
2018-12-01T03:45:16.436Z,100243.61
2018-12-01T03:47:46.477Z,100241.50
2018-12-01T03:50:21.497Z,100241.09
2018-12-01T03:52:51.201Z,100236.44
2018-12-01T03:55:25.063Z,100244.05
2018-12-01T03:57:53.448Z,100251.70
2018-12-01T04:00:37.185Z,100249.19
2018-12-01T04:03:06.909Z,100247.08
2018-12-01T04:05:35.341Z,100251.31
2018-12-01T04:08:03.688Z,100255.55
2018-12-01T04:10:32.170Z,100250.48
2018-12-01T04:13:00.753Z,100248.34
2018-12-01T04:15:29.402Z,100244.13
2018-12-01T04:17:57.864Z,100244.53
2018-12-01T04:20:26.338Z,100247.05
2018-12-01T04:22:54.720Z,100246.64
2018-12-01T04:25:23.204Z,100250.87
2018-12-01T04:27:51.738Z,100249.19
2018-12-01T04:30:22.302Z,100251.30
2018-12-01T04:32:51.513Z,100248.80
2018-12-01T04:35:21.764Z,100251.75
2018-12-01T04:37:53.032Z,100254.70
2018-12-01T04:40:21.616Z,100254.70
2018-12-01T04:42:50.165Z,100261.92
2018-12-01T04:45:18.867Z,100261.05
2018-12-01T04:47:47.339Z,100259.38
2018-12-01T04:50:16.725Z,100264.03
2018-12-01T04:52:45.963Z,100273.75
2018-12-01T04:55:15.646Z,100271.22
2018-12-01T04:57:44.700Z,100276.30
2018-12-01T05:00:17.105Z,100278.41
2018-12-01T05:02:45.554Z,100274.17
2018-12-01T05:05:16.101Z,100271.20
2018-12-01T05:07:44.495Z,100268.67
2018-12-01T05:10:15.015Z,100270.78
2018-12-01T05:12:43.921Z,100276.30
2018-12-01T05:15:16.356Z,100279.69
2018-12-01T05:17:45.349Z,100276.72
2018-12-01T05:20:18.722Z,100276.70
2018-12-01T05:22:47.237Z,100277.95
2018-12-01T05:25:16.613Z,100274.14
2018-12-01T05:27:45.027Z,100274.15
2018-12-01T05:30:13.395Z,100279.64
2018-12-01T05:32:41.773Z,100280.47
2018-12-01T05:35:11.914Z,100280.89
2018-12-01T05:37:40.361Z,100283.39
2018-12-01T05:40:10.372Z,100283.78
2018-12-01T05:42:38.937Z,100285.03
2018-12-01T05:45:10.619Z,100285.03
2018-12-01T05:47:39.010Z,100296.45
2018-12-01T05:50:08.507Z,100291.37
2018-12-01T05:52:37.050Z,100299.84
2018-12-01T05:55:07.450Z,100298.98
2018-12-01T05:57:42.577Z,100295.57
2018-12-01T06:00:13.762Z,100297.69
2018-12-01T06:02:48.859Z,100296.41
2018-12-01T06:05:17.389Z,100293.00
2018-12-01T06:07:49.878Z,100300.20
2018-12-01T06:10:22.234Z,100297.66
2018-12-01T06:13:07.338Z,100295.98
2018-12-01T06:15:35.880Z,100289.62
2018-12-01T06:18:07.265Z,100287.95
2018-12-01T06:20:35.735Z,100291.78
2018-12-01T06:23:04.143Z,100300.70
2018-12-01T06:25:33.515Z,100301.16
2018-12-01T06:28:02.241Z,100298.18
2018-12-01T06:30:30.798Z,100295.66
2018-12-01T06:33:00.865Z,100298.64
2018-12-01T06:35:32.104Z,100299.49
2018-12-01T06:38:00.584Z,100304.15
2018-12-01T06:40:29.201Z,100311.36
2018-12-01T06:42:57.688Z,100311.77
2018-12-01T06:45:31.288Z,100309.64
2018-12-01T06:48:02.488Z,100307.52
2018-12-01T06:50:31.125Z,100310.09
2018-12-01T06:53:00.328Z,100312.20
2018-12-01T06:55:28.935Z,100308.84
2018-12-01T06:57:57.417Z,100307.12
2018-12-01T07:00:27.837Z,100317.31
2018-12-01T07:02:57.090Z,100313.52
2018-12-01T07:05:26.115Z,100307.57
2018-12-01T07:07:54.943Z,100317.33
2018-12-01T07:10:24.847Z,100312.67
2018-12-01T07:12:55.006Z,100319.45
2018-12-01T07:15:25.299Z,100319.45
2018-12-01T07:17:53.727Z,100322.02
2018-12-01T07:20:22.246Z,100321.59
2018-12-01T07:22:51.772Z,100327.94
2018-12-01T07:25:20.801Z,100326.24
2018-12-01T07:27:49.284Z,100318.20
2018-12-01T07:30:17.748Z,100326.67
2018-12-01T07:32:47.030Z,100321.14
2018-12-01T07:35:15.467Z,100320.75
2018-12-01T07:37:43.907Z,100321.99
2018-12-01T07:40:21.772Z,100324.95
2018-12-01T07:42:50.301Z,100322.81
2018-12-01T07:45:19.312Z,100319.38
2018-12-01T07:47:47.894Z,100321.04
2018-12-01T07:50:17.924Z,100330.30
2018-12-01T07:52:49.076Z,100329.46
2018-12-01T07:55:17.974Z,100331.17
2018-12-01T07:57:46.980Z,100329.41
2018-12-01T08:00:17.010Z,100319.64
2018-12-01T08:02:49.027Z,100320.03
2018-12-01T08:05:17.484Z,100314.06
2018-12-01T08:07:52.458Z,100314.47
2018-12-01T08:10:27.263Z,100317.02
2018-12-01T08:12:55.830Z,100317.36
2018-12-01T08:15:25.234Z,100321.14
2018-12-01T08:17:53.597Z,100314.74
2018-12-01T08:20:22.009Z,100311.32
2018-12-01T08:22:51.085Z,100313.03
2018-12-01T08:25:20.484Z,100315.47
2018-12-01T08:27:53.321Z,100309.53
2018-12-01T08:30:26.973Z,100314.98
2018-12-01T08:32:55.351Z,100313.19
2018-12-01T08:35:24.391Z,100310.59
2018-12-01T08:37:53.360Z,100308.88
2018-12-01T08:40:23.315Z,100304.97
2018-12-01T08:42:52.695Z,100308.39
2018-12-01T08:45:21.132Z,100315.11
2018-12-01T08:47:49.953Z,100308.78
2018-12-01T08:50:19.769Z,100308.34
2018-12-01T08:52:48.290Z,100300.25
2018-12-01T08:55:18.783Z,100304.07
2018-12-01T08:57:47.365Z,100310.11
2018-12-01T09:00:18.142Z,100305.94
2018-12-01T09:02:48.116Z,100305.89
2018-12-01T09:05:16.578Z,100305.89
2018-12-01T09:07:45.696Z,100314.37
2018-12-01T09:10:14.132Z,100313.49
2018-12-01T09:12:42.550Z,100311.38
2018-12-01T09:15:13.109Z,100307.59
2018-12-01T09:17:41.766Z,100311.87
2018-12-01T09:20:11.604Z,100308.00
2018-12-01T09:22:41.505Z,100314.76
2018-12-01T09:25:12.227Z,100307.16
2018-12-01T09:27:41.255Z,100303.29
2018-12-01T09:30:19.652Z,100308.55
2018-12-01T09:32:48.247Z,100305.89
2018-12-01T09:35:16.674Z,100306.79
2018-12-01T09:37:45.114Z,100312.39
2018-12-01T09:40:15.795Z,100315.27
2018-12-01T09:42:44.438Z,100313.00
2018-12-01T09:45:14.166Z,100308.71
2018-12-01T09:47:44.664Z,100302.06
2018-12-01T09:50:15.488Z,100300.14
2018-12-01T09:52:45.411Z,100296.16
2018-12-01T09:55:15.909Z,100296.77
2018-12-01T09:57:45.537Z,100293.73
2018-12-01T10:00:18.055Z,100282.93
2018-12-01T10:02:47.228Z,100289.48
2018-12-01T10:05:17.691Z,100287.70
2018-12-01T10:07:46.476Z,100289.29
2018-12-01T10:10:16.143Z,100281.23
2018-12-01T10:12:45.177Z,100273.19
2018-12-01T10:15:19.840Z,100275.09
2018-12-01T10:17:48.346Z,100270.33
2018-12-01T10:20:18.244Z,100263.87
2018-12-01T10:22:46.696Z,100270.08
2018-12-01T10:25:16.588Z,100271.14
2018-12-01T10:27:45.752Z,100271.87
2018-12-01T10:30:17.718Z,100266.47
2018-12-01T10:32:46.325Z,100268.95
2018-12-01T10:35:19.759Z,100268.55
2018-12-01T10:37:51.470Z,100265.52
2018-12-01T10:40:19.989Z,100263.02
2018-12-01T10:42:48.448Z,100258.85
2018-12-01T10:45:18.042Z,100260.69
2018-12-01T10:47:46.905Z,100262.24
2018-12-01T10:50:16.324Z,100259.62
2018-12-01T10:52:45.297Z,100261.63
2018-12-01T10:55:24.237Z,100258.53
2018-12-01T10:57:53.856Z,100261.37
2018-12-01T11:00:27.542Z,100263.02
2018-12-01T11:03:01.235Z,100261.88
2018-12-01T11:05:29.855Z,100261.50
2018-12-01T11:07:58.281Z,100269.66
2018-12-01T11:10:26.727Z,100268.89
2018-12-01T11:12:56.604Z,100268.42
2018-12-01T11:15:25.387Z,100272.66
2018-12-01T11:17:53.829Z,100272.59
2018-12-01T11:20:22.309Z,100277.61
2018-12-01T11:22:51.796Z,100270.64
2018-12-01T11:25:20.471Z,100266.27
2018-12-01T11:27:49.015Z,100271.78
2018-12-01T11:30:19.282Z,100274.60
2018-12-01T11:32:48.159Z,100279.25
2018-12-01T11:35:16.698Z,100275.44
2018-12-01T11:37:45.620Z,100274.06
2018-12-01T11:40:16.340Z,100286.83
2018-12-01T11:42:45.023Z,100286.64
2018-12-01T11:45:14.690Z,100286.62
2018-12-01T11:47:43.212Z,100283.71
2018-12-01T11:50:16.468Z,100276.48
2018-12-01T11:52:45.635Z,100277.95
2018-12-01T11:55:15.443Z,100273.36
2018-12-01T11:57:43.979Z,100270.44
2018-12-01T12:00:13.756Z,100270.75
2018-12-01T12:02:42.198Z,100263.97
2018-12-01T12:05:11.752Z,100265.08
2018-12-01T12:07:51.476Z,100262.07
2018-12-01T12:10:20.115Z,100262.91
2018-12-01T12:12:48.777Z,100261.64
2018-12-01T12:15:17.348Z,100257.23
2018-12-01T12:17:53.706Z,100256.70
2018-12-01T12:20:22.282Z,100249.42
2018-12-01T12:22:50.892Z,100242.99
2018-12-01T12:25:19.269Z,100246.17
2018-12-01T12:27:47.749Z,100237.70
2018-12-01T12:30:17.456Z,100232.26
2018-12-01T12:32:46.299Z,100238.52
2018-12-01T12:35:16.658Z,100238.98
2018-12-01T12:37:45.101Z,100239.45
2018-12-01T12:40:15.859Z,100239.91
2018-12-01T12:42:44.245Z,100233.16
2018-12-01T12:45:13.548Z,100234.06
2018-12-01T12:47:42.272Z,100226.38
2018-12-01T12:50:11.947Z,100222.10
2018-12-01T12:52:40.396Z,100218.74
2018-12-01T12:55:12.293Z,100219.09
2018-12-01T12:57:40.717Z,100224.23
2018-12-01T13:00:13.388Z,100216.17
2018-12-01T13:02:42.697Z,100224.02
2018-12-01T13:05:17.342Z,100233.40
2018-12-01T13:07:45.880Z,100232.12
2018-12-01T13:10:17.325Z,100219.34
2018-12-01T13:12:46.085Z,100221.26
2018-12-01T13:15:15.467Z,100224.95
2018-12-01T13:17:43.905Z,100222.45
2018-12-01T13:20:13.859Z,100227.55
2018-12-01T13:22:42.351Z,100227.96
2018-12-01T13:25:12.993Z,100218.20
2018-12-01T13:27:47.187Z,100209.32
2018-12-01T13:30:17.920Z,100214.51
2018-12-01T13:32:46.417Z,100211.09
2018-12-01T13:35:14.913Z,100206.06
2018-12-01T13:37:43.381Z,100204.41
2018-12-01T13:40:13.972Z,100193.00
2018-12-01T13:42:43.081Z,100194.83
2018-12-01T13:45:17.177Z,100192.05
2018-12-01T13:47:46.454Z,100195.81
2018-12-01T13:50:16.665Z,100197.73
2018-12-01T13:52:49.254Z,100190.86
2018-12-01T13:55:17.697Z,100195.20
2018-12-01T13:57:47.587Z,100200.31
2018-12-01T14:00:17.335Z,100202.86
2018-12-01T14:02:45.816Z,100204.60
2018-12-01T14:05:14.390Z,100202.03
2018-12-01T14:07:42.849Z,100201.59
2018-12-01T14:10:15.077Z,100203.31
2018-12-01T14:12:44.280Z,100200.41
2018-12-01T14:15:17.910Z,100205.65
2018-12-01T14:17:46.621Z,100198.00
2018-12-01T14:20:15.792Z,100200.09
2018-12-01T14:22:45.119Z,100200.16
2018-12-01T14:25:14.448Z,100190.40
2018-12-01T14:27:44.445Z,100188.77
2018-12-01T14:30:14.693Z,100185.84
2018-12-01T14:32:43.143Z,100185.46
2018-12-01T14:35:14.084Z,100188.12
2018-12-01T14:37:42.997Z,100188.20
2018-12-01T14:40:12.812Z,100189.91
2018-12-01T14:42:41.614Z,100187.02
2018-12-01T14:45:11.590Z,100195.92
2018-12-01T14:47:40.121Z,100189.19
2018-12-01T14:50:09.973Z,100181.28
2018-12-01T14:52:38.507Z,100177.02
2018-12-01T14:55:09.533Z,100175.41
2018-12-01T14:57:38.068Z,100178.80
2018-12-01T15:00:24.737Z,100177.47
2018-12-01T15:02:54.368Z,100178.85
2018-12-01T15:05:23.461Z,100177.53
2018-12-01T15:07:51.941Z,100181.86
2018-12-01T15:10:24.837Z,100172.94
2018-12-01T15:12:53.409Z,100168.46
2018-12-01T15:15:23.158Z,100169.79
2018-12-01T15:17:51.533Z,100175.77
2018-12-01T15:20:20.877Z,100175.82
2018-12-01T15:22:50.461Z,100182.22
2018-12-01T15:25:22.129Z,100180.97
2018-12-01T15:27:50.706Z,100184.00
2018-12-01T15:30:23.061Z,100178.11
2018-12-01T15:32:55.162Z,100178.56
2018-12-01T15:35:25.264Z,100183.66
2018-12-01T15:37:58.383Z,100184.53
2018-12-01T15:40:30.419Z,100186.23
2018-12-01T15:43:02.710Z,100185.84
2018-12-01T15:45:31.282Z,100181.62
2018-12-01T15:48:01.213Z,100185.49
2018-12-01T15:50:30.222Z,100183.38
2018-12-01T15:53:00.378Z,100180.88
2018-12-01T15:55:31.048Z,100171.10
2018-12-01T15:58:00.187Z,100165.21
2018-12-01T16:00:28.857Z,100155.87
2018-12-01T16:02:57.861Z,100151.22
2018-12-01T16:05:26.256Z,100144.02
2018-12-01T16:07:56.835Z,100142.75
2018-12-01T16:10:25.554Z,100138.93
2018-12-01T16:12:57.486Z,100141.92
2018-12-01T16:15:31.406Z,100135.59
2018-12-01T16:17:59.927Z,100130.16
2018-12-01T16:20:29.279Z,100126.34
2018-12-01T16:22:57.724Z,100123.83
2018-12-01T16:25:26.458Z,100116.20
2018-12-01T16:27:54.902Z,100111.52
2018-12-01T16:30:31.442Z,100116.64
2018-12-01T16:33:01.436Z,100109.02
2018-12-01T16:35:29.889Z,100107.73
2018-12-01T16:37:58.386Z,100106.50
2018-12-01T16:40:35.615Z,100107.34
2018-12-01T16:43:06.236Z,100100.50
2018-12-01T16:45:34.735Z,100101.77
2018-12-01T16:48:03.201Z,100096.68
2018-12-01T16:50:32.137Z,100096.20
2018-12-01T16:53:00.643Z,100091.11
2018-12-01T16:55:29.102Z,100085.16
2018-12-01T16:57:57.720Z,100078.80
2018-12-01T17:00:26.980Z,100080.10
2018-12-01T17:02:56.751Z,100064.40
2018-12-01T17:05:26.919Z,100068.16
2018-12-01T17:07:55.432Z,100065.62
2018-12-01T17:10:24.071Z,100057.11
2018-12-01T17:12:53.849Z,100054.96
2018-12-01T17:15:22.759Z,100043.52
2018-12-01T17:17:51.292Z,100043.88
2018-12-01T17:20:20.158Z,100040.51
2018-12-01T17:22:51.973Z,100045.50
2018-12-01T17:25:20.410Z,100037.42
2018-12-01T17:27:50.066Z,100043.35
2018-12-01T17:30:21.658Z,100036.98
2018-12-01T17:32:50.406Z,100047.55
2018-12-01T17:35:20.157Z,100043.34
2018-12-01T17:37:50.920Z,100048.88
2018-12-01T17:40:26.194Z,100048.05
2018-12-01T17:42:56.302Z,100042.52
2018-12-01T17:45:24.764Z,100043.80
2018-12-01T17:47:53.867Z,100041.73
2018-12-01T17:50:22.342Z,100043.02
2018-12-01T17:52:54.215Z,100040.85
2018-12-01T17:55:23.415Z,100043.41
2018-12-01T17:57:52.476Z,100040.42
2018-12-01T18:00:22.410Z,100041.78
2018-12-01T18:02:52.124Z,100037.55
2018-12-01T18:05:23.514Z,100043.41
2018-12-01T18:07:52.068Z,100041.34
2018-12-01T18:10:20.449Z,100046.00
2018-12-01T18:12:49.008Z,100050.16
2018-12-01T18:15:18.496Z,100048.43
2018-12-01T18:17:47.013Z,100048.00
2018-12-01T18:20:17.824Z,100047.55
2018-12-01T18:22:48.886Z,100040.74
2018-12-01T18:25:17.305Z,100036.05
2018-12-01T18:27:47.218Z,100030.87
2018-12-01T18:30:22.025Z,100039.35
2018-12-01T18:32:50.774Z,100034.58
2018-12-01T18:35:19.254Z,100031.14
2018-12-01T18:37:47.706Z,100032.80
2018-12-01T18:40:19.300Z,100030.19
2018-12-01T18:42:47.768Z,100034.41
2018-12-01T18:45:17.591Z,100034.46
2018-12-01T18:47:46.088Z,100029.75
2018-12-01T18:50:17.543Z,100029.31
2018-12-01T18:52:51.318Z,100022.50
2018-12-01T18:55:19.755Z,100025.91
2018-12-01T18:57:48.223Z,100023.37
2018-12-01T19:00:22.547Z,100022.50
2018-12-01T19:02:50.951Z,100016.14
2018-12-01T19:05:19.434Z,100011.87
2018-12-01T19:07:47.885Z,99998.73
2018-12-01T19:10:18.173Z,99991.59
2018-12-01T19:12:48.458Z,99988.62
2018-12-01T19:15:17.917Z,99984.88
2018-12-01T19:17:47.792Z,99979.75
2018-12-01T19:20:17.713Z,99980.28
2018-12-01T19:22:47.291Z,99980.66
2018-12-01T19:25:19.736Z,99974.73
2018-12-01T19:27:48.691Z,99975.19
2018-12-01T19:30:18.336Z,99969.26
2018-12-01T19:32:49.432Z,99967.17
2018-12-01T19:35:19.528Z,99957.82
2018-12-01T19:37:51.212Z,99956.55
2018-12-01T19:40:28.591Z,99945.98
2018-12-01T19:42:54.252Z,99944.25
2018-12-01T19:45:22.658Z,99945.55
2018-12-01T19:47:57.977Z,99936.19
2018-12-01T19:50:35.542Z,99939.59
2018-12-01T19:53:04.295Z,99936.62
2018-12-01T19:58:11.994Z,99939.63
2018-12-01T20:00:42.557Z,99932.47
2018-12-01T20:03:15.723Z,99933.81
2018-12-01T20:05:44.231Z,99932.55
2018-12-01T20:08:14.368Z,99934.71
2018-12-01T20:10:45.000Z,99928.79
2018-12-01T20:13:45.345Z,99925.81
2018-12-01T20:16:35.777Z,99930.47
2018-12-01T20:19:06.192Z,99925.42
2018-12-01T20:21:34.770Z,99930.52
2018-12-01T20:24:03.563Z,99922.45
2018-12-01T20:26:33.220Z,99922.90
2018-12-01T20:29:03.132Z,99908.88
2018-12-01T20:31:32.386Z,99905.84
2018-12-01T20:34:02.200Z,99893.55
2018-12-01T20:36:37.655Z,99896.48
2018-12-01T20:39:16.119Z,99899.03
2018-12-01T20:41:44.991Z,99891.38
2018-12-01T20:44:13.609Z,99879.42
2018-12-01T20:46:43.585Z,99881.52
2018-12-01T20:49:12.850Z,99879.80
2018-12-01T20:51:42.118Z,99877.24
2018-12-01T20:54:20.969Z,99869.96
2018-12-01T20:56:49.385Z,99865.16
2018-12-01T20:59:18.596Z,99852.00
2018-12-01T21:01:47.034Z,99851.23
2018-12-01T21:04:15.456Z,99839.80
2018-12-01T21:06:43.894Z,99831.77
2018-12-01T21:09:14.241Z,99826.30
2018-12-01T21:11:42.841Z,99814.85
2018-12-01T21:14:11.529Z,99808.94
2018-12-01T21:16:41.107Z,99804.67
2018-12-01T21:19:10.481Z,99801.67
2018-12-01T21:21:38.968Z,99802.95
2018-12-01T21:24:08.387Z,99799.16
2018-12-01T21:26:37.643Z,99782.61
2018-12-01T21:29:06.968Z,99774.20
2018-12-01T21:31:36.211Z,99774.95
2018-12-01T21:34:05.310Z,99769.84
2018-12-01T21:36:33.908Z,99770.19
2018-12-01T21:39:02.696Z,99764.22
2018-12-01T21:41:31.256Z,99767.60
2018-12-01T21:43:59.785Z,99756.39
2018-12-01T21:46:28.322Z,99758.34
2018-12-01T21:48:56.940Z,99765.08
2018-12-01T21:51:25.412Z,99759.41
2018-12-01T21:53:53.971Z,99765.25
2018-12-01T21:56:22.460Z,99752.61
2018-12-01T21:58:51.291Z,99754.67
2018-12-01T22:01:19.936Z,99758.64
2018-12-01T22:03:48.711Z,99747.86
2018-12-01T22:06:17.142Z,99757.96
2018-12-01T22:08:45.722Z,99752.55
2018-12-01T22:11:14.084Z,99740.34
2018-12-01T22:13:42.530Z,99737.69
2018-12-01T22:16:12.103Z,99741.52
2018-12-01T22:18:42.339Z,99729.13
2018-12-01T22:21:10.768Z,99733.76
2018-12-01T22:23:39.260Z,99728.21
2018-12-01T22:26:08.372Z,99724.41
2018-12-01T22:28:36.770Z,99722.30
2018-12-01T22:31:05.781Z,99710.59
2018-12-01T22:33:34.663Z,99703.75
2018-12-01T22:36:03.245Z,99696.30
2018-12-01T22:38:31.735Z,99697.23
2018-12-01T22:41:00.209Z,99690.97
2018-12-01T22:43:28.690Z,99685.42
2018-12-01T22:45:57.208Z,99687.16
2018-12-01T22:48:26.517Z,99679.53
2018-12-01T22:50:55.159Z,99679.61
2018-12-01T22:53:23.597Z,99667.20
2018-12-01T22:55:52.039Z,99660.34
2018-12-01T22:58:21.546Z,99668.38
2018-12-01T23:00:53.483Z,99667.22
2018-12-01T23:03:22.359Z,99666.41
2018-12-01T23:05:50.951Z,99668.03
2018-12-01T23:08:21.200Z,99666.37
2018-12-01T23:10:49.777Z,99653.19
2018-12-01T23:13:18.307Z,99651.86
2018-12-01T23:15:46.751Z,99650.59
2018-12-01T23:18:16.863Z,99648.89
2018-12-01T23:20:46.715Z,99648.51
2018-12-01T23:23:15.187Z,99644.79
2018-12-01T23:25:43.778Z,99642.52
2018-12-01T23:28:12.301Z,99635.75
2018-12-01T23:30:42.519Z,99630.31
2018-12-01T23:33:13.305Z,99626.05
2018-12-01T23:35:41.825Z,99624.38
2018-12-01T23:38:10.350Z,99614.12
2018-12-01T23:40:39.819Z,99615.75
2018-12-01T23:43:08.441Z,99617.83
2018-12-01T23:45:38.841Z,99609.82
2018-12-01T23:48:07.894Z,99611.18
2018-12-01T23:50:36.802Z,99598.76
2018-12-01T23:53:09.316Z,99603.00
2018-12-01T23:55:38.819Z,99602.61
2018-12-01T23:58:07.392Z,99594.98
